Time;durP1;ratioP1;P1;durP2;ratioP2;P2;SDS_P1;SDS_P2;PMS_P1;PMS_P2;Temp;Humidity;BMP_temperature;BMP_pressure;BME280_temperature;BME280_humidity;BME280_pressure;Samples;Min_cycle;Max_cycle;Signal;HPM_P1;HPM_P2
2022/07/23 00:01:17;;;;;;;;;38.00;33.67;;;;;22.03;100.00;101042.34;4951537;28;45318;-83
2022/07/23 00:03:42;;;;;;;;;39.00;33.00;;;;;22.00;100.00;101040.63;4960665;28;45322;-82
2022/07/23 00:06:08;;;;;;;;;35.33;31.00;;;;;22.01;100.00;101047.78;4949667;28;45480;-83
2022/07/23 00:08:33;;;;;;;;;33.33;29.67;;;;;21.94;100.00;101041.66;4950066;28;45425;-82
2022/07/23 00:11:07;;;;;;;;;36.33;32.67;;;;;22.02;100.00;101051.41;4948729;28;46013;-83
2022/07/23 00:13:34;;;;;;;;;31.67;28.67;;;;;22.01;100.00;101036.09;4952697;28;45438;-82
2022/07/23 00:16:00;;;;;;;;;34.33;31.67;;;;;22.01;100.00;101047.78;4965090;28;45463;-83
2022/07/23 00:18:27;;;;;;;;;27.67;27.67;;;;;22.01;100.00;101049.63;4944028;28;45000;-82
2022/07/23 00:20:53;;;;;;;;;34.67;32.00;;;;;21.92;100.00;101043.53;4950172;28;45404;-83
2022/07/23 00:23:22;;;;;;;;;27.00;25.00;;;;;21.93;100.00;101044.41;4950221;28;45441;-83
2022/07/23 00:25:47;;;;;;;;;34.00;29.67;;;;;21.90;100.00;101050.81;4942130;28;45453;-83
2022/07/23 00:28:12;;;;;;;;;28.67;27.00;;;;;21.90;100.00;101039.09;4946885;28;45433;-83
2022/07/23 00:30:39;;;;;;;;;31.67;30.00;;;;;21.94;100.00;101047.09;4948158;28;45641;-83
2022/07/23 00:33:07;;;;;;;;;34.67;30.33;;;;;21.93;100.00;101034.47;4948326;28;45474;-82
2022/07/23 00:35:35;;;;;;;;;38.00;33.33;;;;;21.83;100.00;101026.66;4940399;28;45468;-83
2022/07/23 00:38:04;;;;;;;;;32.33;30.33;;;;;21.89;100.00;101043.59;4934375;28;45409;-82
2022/07/23 00:40:30;;;;;;;;;30.00;30.00;;;;;21.85;100.00;101049.16;4931699;28;45830;-82
2022/07/23 00:42:56;;;;;;;;;27.00;26.33;;;;;21.81;100.00;101040.22;4929293;28;45533;-83
2022/07/23 00:45:22;;;;;;;;;31.33;29.33;;;;;21.82;100.00;101041.13;4923291;28;45434;-83
2022/07/23 00:47:47;;;;;;;;;34.00;29.00;;;;;21.72;100.00;101037.78;4930092;28;44943;-82
2022/07/23 00:50:14;;;;;;;;;30.67;29.33;;;;;21.72;100.00;101046.78;4931158;28;45274;-81
2022/07/23 00:52:41;;;;;;;;;28.67;28.33;;;;;21.69;100.00;101036.06;4929748;28;45739;-83
2022/07/23 00:55:09;;;;;;;;;27.67;27.67;;;;;21.65;100.00;101042.47;4930757;28;45298;-83
2022/07/23 00:57:35;;;;;;;;;26.67;26.67;;;;;21.47;100.00;101024.00;4923103;28;45449;-83
2022/07/23 01:00:01;;;;;;;;;32.00;28.33;;;;;21.44;100.00;101029.53;4942828;28;48004;-83
2022/07/23 01:02:27;;;;;;;;;29.33;28.00;;;;;21.41;100.00;101038.59;4921058;28;45287;-82
2022/07/23 01:04:54;;;;;;;;;23.33;23.33;;;;;21.28;100.00;101029.88;4929860;28;45338;-82
2022/07/23 01:07:20;;;;;;;;;33.67;29.33;;;;;21.27;100.00;101038.94;4946333;28;45653;-82
2022/07/23 01:09:45;;;;;;;;;25.67;24.33;;;;;21.24;100.00;101036.28;4947003;28;45373;-82
2022/07/23 01:12:11;;;;;;;;;27.00;22.00;;;;;21.23;100.00;101033.63;4949670;28;45437;-82
2022/07/23 01:14:37;;;;;;;;;26.67;24.00;;;;;21.16;100.00;101024.78;4950630;28;45658;-82
2022/07/23 01:17:02;;;;;;;;;30.67;28.67;;;;;21.14;100.00;101026.63;4951489;28;45402;-83
2022/07/23 01:19:28;;;;;;;;;29.00;27.33;;;;;21.12;100.00;101023.09;4943765;28;47184;-83
2022/07/23 01:21:56;;;;;;;;;28.00;27.00;;;;;21.14;100.00;101026.63;4949195;28;46131;-83
2022/07/23 01:24:23;;;;;;;;;28.67;25.67;;;;;21.18;100.00;101029.22;4942682;28;45394;-83
2022/07/23 01:26:50;;;;;;;;;28.67;27.67;;;;;21.12;100.00;101017.69;4947325;28;44897;-83
2022/07/23 01:29:16;;;;;;;;;26.67;26.33;;;;;21.21;100.00;101027.38;4955471;28;45435;-82
2022/07/23 01:31:43;;;;;;;;;25.67;24.33;;;;;21.20;100.00;101026.47;4947013;28;45375;-82
2022/07/23 01:34:09;;;;;;;;;34.33;27.00;;;;;21.23;100.00;101026.41;4961631;28;45362;-82
2022/07/23 01:36:37;;;;;;;;;27.00;25.33;;;;;21.21;100.00;101022.88;4940060;28;45683;-81
2022/07/23 01:39:05;;;;;;;;;27.00;25.00;;;;;21.27;100.00;101033.53;4945248;28;44992;-82
2022/07/23 01:41:31;;;;;;;;;24.00;22.00;;;;;21.29;100.00;101025.34;4945909;28;45333;-82
2022/07/23 01:43:56;;;;;;;;;29.00;27.33;;;;;21.25;100.00;101019.16;4946964;28;45324;-82
2022/07/23 01:46:22;;;;;;;;;25.00;23.33;;;;;21.30;100.00;101024.44;4945154;28;44831;-82
2022/07/23 01:48:48;;;;;;;;;25.33;21.33;;;;;21.34;100.00;101024.31;4944445;28;45409;-82
2022/07/23 01:51:13;;;;;;;;;25.33;23.67;;;;;21.36;100.00;101018.88;4946500;28;45280;-83
2022/07/23 01:53:38;;;;;;;;;30.67;29.00;;;;;21.37;100.00;101012.53;4939801;28;45306;-82
2022/07/23 01:56:04;;;;;;;;;29.00;27.67;;;;;21.40;100.00;101009.72;4946491;28;45363;-82
2022/07/23 01:58:30;;;;;;;;;36.67;33.00;;;;;21.40;100.00;101007.03;4938410;28;46890;-82
2022/07/23 02:00:56;;;;;;;;;34.67;30.00;;;;;21.40;100.00;101011.56;4946041;28;45516;-81
2022/07/23 02:03:22;;;;;;;;;41.33;34.67;;;;;21.46;100.00;101019.56;4938191;28;45561;-83
2022/07/23 02:05:48;;;;;;;;;36.00;30.33;;;;;21.43;100.00;101016.91;4944797;28;45430;-82
2022/07/23 02:08:14;;;;;;;;;32.00;31.00;;;;;21.38;100.00;101011.59;4935713;28;46979;-82
2022/07/23 02:10:40;;;;;;;;;37.33;33.67;;;;;21.41;100.00;101016.03;4945032;28;45369;-81
2022/07/23 02:13:06;;;;;;;;;36.67;33.33;;;;;21.38;100.00;101009.78;4945012;28;45456;-82
2022/07/23 02:15:33;;;;;;;;;39.33;34.00;;;;;21.41;100.00;101013.31;4947973;28;45405;-82
2022/07/23 02:17:58;;;;;;;;;38.33;34.33;;;;;21.41;100.00;101010.63;4961410;28;45814;-82
2022/07/23 02:20:24;;;;;;;;;33.00;30.33;;;;;21.45;100.00;101017.75;4947932;28;45379;-82
2022/07/23 02:22:50;;;;;;;;;38.00;32.67;;;;;21.46;100.00;101028.53;4944256;28;44867;-81
2022/07/23 02:25:46;;;;;;;;;29.00;28.33;;;;;21.40;100.00;101033.22;4955243;28;45449;-82
2022/07/23 02:28:12;;;;;;;;;29.33;29.33;;;;;21.31;100.00;101031.59;4946272;28;45643;-82
2022/07/23 02:30:38;;;;;;;;;31.33;28.33;;;;;21.23;100.00;101030.91;4946475;28;45289;-82
2022/07/23 02:33:03;;;;;;;;;25.00;23.33;;;;;21.18;100.00;101033.75;4946415;28;44886;-83
2022/07/23 02:35:29;;;;;;;;;26.67;21.33;;;;;21.14;100.00;101037.47;4956676;28;45580;-82
2022/07/23 02:37:55;;;;;;;;;24.00;23.00;;;;;21.08;100.00;101043.03;4947227;28;46845;-83
2022/07/23 02:40:21;;;;;;;;;25.67;23.00;;;;;21.04;100.00;101050.31;4964884;28;46431;-82
2022/07/23 02:42:46;;;;;;;;;25.67;24.67;;;;;21.06;100.00;101055.69;4964139;28;45297;-82
2022/07/23 02:45:11;;;;;;;;;23.00;21.33;;;;;20.98;100.00;101043.22;4946765;28;45493;-82
2022/07/23 02:47:37;;;;;;;;;26.00;23.33;;;;;20.97;100.00;101036.06;4964771;28;46247;-81
2022/07/23 02:50:05;;;;;;;;;24.00;22.00;;;;;21.04;100.00;101047.59;4946716;28;45446;-82
2022/07/23 02:52:31;;;;;;;;;24.67;21.00;;;;;21.04;100.00;101044.91;4947235;28;45452;-82
2022/07/23 02:54:56;;;;;;;;;30.00;24.00;;;;;21.06;100.00;101048.47;4948237;28;45358;-82
2022/07/23 02:57:21;;;;;;;;;23.33;23.00;;;;;21.07;100.00;101052.97;4948156;28;47782;-82
2022/07/23 02:59:47;;;;;;;;;23.67;20.33;;;;;21.09;100.00;101055.63;4947213;28;44839;-82
2022/07/23 03:02:13;;;;;;;;;22.00;19.67;;;;;21.11;100.00;101061.91;4947295;28;45630;-83
2022/07/23 03:04:42;;;;;;;;;25.67;22.00;;;;;21.06;100.00;101056.56;4964992;28;44881;-81
2022/07/23 03:07:07;;;;;;;;;24.00;22.67;;;;;21.05;100.00;101054.81;4964318;28;45253;-83
2022/07/23 03:09:33;;;;;;;;;21.67;20.67;;;;;21.07;100.00;101062.91;4946386;28;45411;-83
2022/07/23 03:11:58;;;;;;;;;26.00;24.67;;;;;21.11;100.00;101059.19;4945783;28;45426;-81
2022/07/23 03:14:23;;;;;;;;;17.33;17.00;;;;;21.06;100.00;101061.09;4943237;28;45643;-81
2022/07/23 03:16:50;;;;;;;;;19.67;19.67;;;;;21.00;100.00;101064.84;4943190;28;46676;-82
2022/07/23 03:19:15;;;;;;;;;25.00;24.00;;;;;21.00;100.00;101053.13;4936364;28;45504;-82
2022/07/23 03:21:41;;;;;;;;;23.33;22.00;;;;;20.97;100.00;101065.81;4928849;28;45532;-81
2022/07/23 03:24:09;;;;;;;;;23.67;23.67;;;;;20.92;100.00;101070.41;4943455;28;45399;-82
2022/07/23 03:26:34;;;;;;;;;25.33;23.00;;;;;20.86;100.00;101070.56;4939102;28;46735;-83
2022/07/23 03:29:01;;;;;;;;;24.33;24.00;;;;;20.84;100.00;101076.94;4944578;28;45539;-82
2022/07/23 03:31:26;;;;;;;;;25.00;22.33;;;;;20.75;100.00;101078.94;4937616;28;45390;-83
2022/07/23 03:33:51;;;;;;;;;29.00;23.33;;;;;20.74;100.00;101081.66;4945015;28;45284;-83
2022/07/23 03:36:17;;;;;;;;;25.00;23.67;;;;;20.77;100.00;101087.00;4935069;28;47170;-82
2022/07/23 03:38:42;;;;;;;;;19.67;19.67;;;;;20.71;100.00;101068.22;4944625;28;45381;-83
2022/07/23 03:41:08;;;;;;;;;21.67;21.67;;;;;20.75;100.00;101078.03;4945729;28;45472;-82
2022/07/23 03:43:33;;;;;;;;;21.33;21.33;;;;;20.72;100.00;101084.41;4947079;28;45473;-84
2022/07/23 03:46:00;;;;;;;;;18.67;18.67;;;;;20.72;100.00;101086.22;4945987;28;45021;-82
2022/07/23 03:48:25;;;;;;;;;20.67;20.33;;;;;20.69;100.00;101078.19;4947655;28;45987;-81
2022/07/23 03:50:50;;;;;;;;;22.67;22.33;;;;;20.66;100.00;101086.34;4944956;28;45513;-81
2022/07/23 03:53:16;;;;;;;;;23.00;20.00;;;;;20.61;100.00;101086.47;4954926;28;45484;-82
2022/07/23 03:55:41;;;;;;;;;27.67;25.00;;;;;20.58;100.00;101076.63;4947149;28;46626;-82
2022/07/23 03:58:08;;;;;;;;;28.33;26.00;;;;;20.58;100.00;101087.44;4948521;28;45465;-82
2022/07/23 04:00:34;;;;;;;;;28.00;22.00;;;;;20.58;100.00;101091.88;4940612;28;44919;-83
2022/07/23 04:02:59;;;;;;;;;26.33;22.00;;;;;20.53;100.00;101092.00;4948081;28;45402;-83
2022/07/23 04:05:25;;;;;;;;;25.67;21.67;;;;;20.53;100.00;101089.28;4940349;28;47259;-83
2022/07/23 04:07:50;;;;;;;;;22.33;21.67;;;;;20.54;100.00;101091.09;4946723;28;45435;-83
2022/07/23 04:10:15;;;;;;;;;31.00;26.00;;;;;20.54;100.00;101092.88;4938296;28;45357;-82
2022/07/23 04:12:41;;;;;;;;;28.00;26.33;;;;;20.58;100.00;101091.88;4965693;28;44891;-83
2022/07/23 04:15:07;;;;;;;;;26.67;22.00;;;;;20.55;100.00;101092.84;4950191;28;46963;-82
2022/07/23 04:17:33;;;;;;;;;26.33;26.33;;;;;20.61;100.00;101102.69;4950471;28;45743;-82
2022/07/23 04:19:58;;;;;;;;;22.67;20.67;;;;;20.62;100.00;101101.72;4966950;28;45458;-82
2022/07/23 04:22:24;;;;;;;;;23.00;21.33;;;;;20.61;100.00;101096.38;4967736;28;45410;-82
2022/07/23 04:24:50;;;;;;;;;27.67;27.33;;;;;20.60;100.00;101102.69;4967541;28;45593;-82
2022/07/23 04:27:22;;;;;;;;;28.67;22.33;;;;;20.61;100.00;101099.09;4948414;28;45515;-83
2022/07/23 04:29:47;;;;;;;;;26.00;24.00;;;;;20.67;100.00;101107.06;4945435;28;45326;-83
2022/07/23 04:32:13;;;;;;;;;27.67;25.00;;;;;20.66;100.00;101111.56;4947241;28;45224;-82
2022/07/23 04:34:39;;;;;;;;;22.33;18.00;;;;;20.61;100.00;101101.78;4929873;28;46884;-83
2022/07/23 04:37:04;;;;;;;;;23.33;23.33;;;;;20.64;100.00;101104.41;4930076;28;45495;-83
2022/07/23 04:39:29;;;;;;;;;24.33;23.33;;;;;20.63;100.00;101116.16;4928499;28;45785;-83
2022/07/23 04:41:55;;;;;;;;;26.33;26.33;;;;;20.58;100.00;101111.75;4944419;28;45429;-83
2022/07/23 04:44:20;;;;;;;;;30.33;28.00;;;;;20.48;100.00;101101.13;4928666;28;46746;-83
2022/07/23 04:46:46;;;;;;;;;31.00;28.33;;;;;20.50;100.00;101105.59;4944896;28;45447;-83
2022/07/23 04:49:11;;;;;;;;;25.00;24.33;;;;;20.52;100.00;101113.63;4946045;28;45580;-82
2022/07/23 04:51:38;;;;;;;;;31.67;27.67;;;;;20.57;100.00;101118.03;4945203;28;45431;-83
2022/07/23 04:54:03;;;;;;;;;25.67;24.00;;;;;20.58;100.00;101109.03;4928439;28;47679;-83
2022/07/23 04:56:29;;;;;;;;;28.00;24.33;;;;;20.64;100.00;101124.22;4928930;28;45500;-82
2022/07/23 04:58:54;;;;;;;;;25.33;24.67;;;;;20.63;100.00;101118.88;4947237;28;45457;-81
2022/07/23 05:01:19;;;;;;;;;26.33;23.67;;;;;20.66;100.00;101114.25;4949593;28;44773;-82
2022/07/23 05:03:45;;;;;;;;;33.00;29.00;;;;;20.61;100.00;101118.88;4931288;28;47071;-83
2022/07/23 05:06:10;;;;;;;;;28.00;28.00;;;;;20.64;100.00;101124.22;4949194;28;45391;-83
2022/07/23 05:08:36;;;;;;;;;34.00;27.67;;;;;20.65;100.00;101125.13;4932874;28;45335;-82
2022/07/23 05:11:01;;;;;;;;;28.67;27.00;;;;;20.63;100.00;101121.56;4948146;28;45382;-83
2022/07/23 05:13:26;;;;;;;;;30.00;26.67;;;;;20.63;100.00;101117.03;4948484;28;45744;-83
2022/07/23 05:15:52;;;;;;;;;29.67;28.33;;;;;20.65;100.00;101120.59;4948690;28;44914;-83
2022/07/23 05:18:17;;;;;;;;;33.67;30.67;;;;;20.69;100.00;101116.03;4931145;28;45509;-82
2022/07/23 05:20:43;;;;;;;;;30.67;28.33;;;;;20.70;100.00;101128.59;4930686;28;45356;-82
2022/07/23 05:23:08;;;;;;;;;32.00;30.00;;;;;20.70;100.00;101131.31;4958394;28;46392;-82
2022/07/23 05:25:34;;;;;;;;;29.00;26.67;;;;;20.69;100.00;101127.72;4968207;28;45346;-82
2022/07/23 05:28:00;;;;;;;;;34.33;31.00;;;;;20.73;100.00;101129.44;4950414;28;45393;-82
2022/07/23 05:30:26;;;;;;;;;32.00;29.00;;;;;20.70;100.00;101118.72;4948725;28;45448;-82
2022/07/23 05:32:51;;;;;;;;;29.33;29.33;;;;;20.74;100.00;101122.22;4966049;28;45525;-81
2022/07/23 05:35:17;;;;;;;;;33.00;31.00;;;;;20.70;100.00;101134.00;4966675;28;45412;-82
2022/07/23 05:37:42;;;;;;;;;41.67;35.67;;;;;20.67;100.00;101128.69;4951126;28;44793;-82
2022/07/23 05:40:10;;;;;;;;;38.33;33.33;;;;;20.65;100.00;101120.59;4968426;28;45312;-82
2022/07/23 05:42:38;;;;;;;;;41.67;35.67;;;;;20.69;100.00;101132.25;4966963;28;45528;-83
2022/07/23 05:45:04;;;;;;;;;36.33;34.00;;;;;20.66;100.00;101121.47;4950850;28;45495;-83
2022/07/23 05:47:43;;;;;;;;;35.33;32.33;;;;;20.70;100.00;101134.91;4950732;28;45449;-82
2022/07/23 05:50:09;;;;;;;;;44.00;36.00;;;;;20.69;100.00;101129.53;4950340;28;45644;-81
2022/07/23 05:52:34;;;;;;;;;44.33;36.00;;;;;20.62;100.00;101123.34;4966042;28;46345;-82
2022/07/23 05:55:00;;;;;;;;;47.00;37.00;;;;;20.62;100.00;101126.06;4948956;28;45260;-82
2022/07/23 05:57:25;;;;;;;;;45.00;35.33;;;;;20.63;100.00;101133.25;4949435;28;45482;-82
2022/07/23 05:59:50;;;;;;;;;50.33;38.00;;;;;20.61;100.00;101131.53;4948254;28;45386;-82
2022/07/23 06:02:16;;;;;;;;;44.67;36.00;;;;;20.65;100.00;101127.81;4966521;28;45365;-82
2022/07/23 06:04:42;;;;;;;;;44.67;36.33;;;;;20.67;100.00;101134.97;4965896;28;45396;-82
2022/07/23 06:07:07;;;;;;;;;44.00;36.00;;;;;20.70;100.00;101128.59;4946485;28;45321;-82
2022/07/23 06:09:40;;;;;;;;;49.67;38.33;;;;;20.71;100.00;101130.41;4965534;28;44831;-83
2022/07/23 06:12:06;;;;;;;;;45.67;37.00;;;;;20.75;100.00;101142.91;4945140;28;46969;-83
2022/07/23 06:14:31;;;;;;;;;44.00;37.00;;;;;20.73;100.00;101131.25;4956075;28;44961;-83
2022/07/23 06:16:57;;;;;;;;;48.67;39.33;;;;;20.70;100.00;101134.00;4946482;28;45374;-83
2022/07/23 06:19:22;;;;;;;;;39.67;34.00;;;;;20.72;100.00;101145.69;4937980;28;45487;-82
2022/07/23 06:21:50;;;;;;;;;52.33;41.67;;;;;20.67;100.00;101136.78;4944835;28;46711;-83
2022/07/23 06:24:15;;;;;;;;;43.33;35.67;;;;;20.71;100.00;101152.91;4937949;28;45460;-82
2022/07/23 06:26:41;;;;;;;;;54.33;42.33;;;;;20.70;100.00;101151.13;4947101;28;45454;-83
2022/07/23 06:29:07;;;;;;;;;50.67;41.33;;;;;20.80;100.00;101150.91;4948104;28;45473;-82
2022/07/23 06:31:33;;;;;;;;;49.67;40.00;;;;;20.85;100.00;101144.50;4942489;28;46017;-82
2022/07/23 06:33:58;;;;;;;;;56.33;45.00;;;;;20.90;100.00;101164.19;4946666;28;45424;-83
2022/07/23 06:36:24;;;;;;;;;52.67;42.67;;;;;20.88;100.00;101157.06;4955179;28;45377;-83
2022/07/23 06:38:49;;;;;;;;;58.33;45.33;;;;;20.90;100.00;101149.78;4942765;28;45565;-83
2022/07/23 06:41:15;;;;;;;;;49.67;41.67;;;;;20.95;100.00;101151.47;4930683;28;46950;-82
2022/07/23 06:43:40;;;;;;;;;52.33;44.33;;;;;20.96;100.00;101155.94;4927847;28;45402;-82
2022/07/23 06:46:06;;;;;;;;;51.67;42.33;;;;;20.88;100.00;101154.34;4945249;28;45785;-82
2022/07/23 06:48:31;;;;;;;;;54.33;44.33;;;;;20.88;100.00;101157.94;4946279;28;45306;-82
2022/07/23 06:50:58;;;;;;;;;57.00;45.67;;;;;20.98;100.00;101158.63;4945191;28;46706;-82
2022/07/23 06:53:23;;;;;;;;;54.00;43.00;;;;;20.97;100.00;101143.34;4947468;28;45470;-82
2022/07/23 06:59:10;;;;;;;;;56.00;42.33;;;;;21.08;100.00;101165.59;4947944;28;45343;-82
2022/07/23 07:01:36;;;;;;;;;53.33;45.00;;;;;21.09;100.00;101161.09;4944975;28;47602;-83
2022/07/23 07:04:01;;;;;;;;;54.00;43.00;;;;;21.15;100.00;101174.47;4945644;28;44758;-83
2022/07/23 07:06:26;;;;;;;;;57.00;44.33;;;;;21.15;100.00;101174.47;4928319;28;45423;-83
2022/07/23 07:08:52;;;;;;;;;56.67;46.00;;;;;21.12;100.00;101171.84;4945656;28;44805;-83
2022/07/23 07:11:18;;;;;;;;;56.33;46.00;;;;;21.11;100.00;101175.47;4927532;28;47594;-84
2022/07/23 07:13:43;;;;;;;;;53.67;43.33;;;;;21.12;100.00;101185.34;4944861;28;44883;-83
2022/07/23 07:16:08;;;;;;;;;57.67;47.00;;;;;21.07;100.00;101185.47;4945653;28;45458;-83
2022/07/23 07:18:34;;;;;;;;;54.33;44.00;;;;;21.07;100.00;101199.00;4929507;28;45403;-81
2022/07/23 07:21:01;;;;;;;;;52.67;41.67;;;;;21.09;100.00;101191.75;4946861;28;47134;-83
2022/07/23 07:23:26;;;;;;;;;52.00;42.67;;;;;21.14;100.00;101197.03;4948805;28;45519;-82
2022/07/23 07:25:52;;;;;;;;;53.00;42.00;;;;;21.18;100.00;101202.31;4931570;28;45721;-82
2022/07/23 07:28:17;;;;;;;;;55.00;43.00;;;;;21.17;100.00;101202.38;4947684;28;45490;-82
2022/07/23 07:30:43;;;;;;;;;51.67;41.67;;;;;21.09;100.00;101190.84;4944471;28;47295;-82
2022/07/23 07:33:09;;;;;;;;;50.67;41.67;;;;;21.15;100.00;101194.31;4965822;28;45485;-82
2022/07/23 07:35:35;;;;;;;;;49.33;39.67;;;;;21.23;100.00;101204.97;4943913;28;44832;-82
2022/07/23 07:38:01;;;;;;;;;51.67;42.00;;;;;21.31;100.00;101202.97;4948944;28;45352;-82
2022/07/23 07:40:27;;;;;;;;;52.67;43.67;;;;;21.33;100.00;101205.59;4946983;28;47420;-84
2022/07/23 07:42:54;;;;;;;;;48.67;40.33;;;;;21.37;100.00;101207.34;4950547;28;45384;-85
2022/07/23 07:45:21;;;;;;;;;47.33;40.00;;;;;21.34;100.00;101200.16;4949082;28;45454;-83
2022/07/23 07:47:47;;;;;;;;;51.00;42.33;;;;;21.41;100.00;101218.97;4961091;28;45388;-82
2022/07/23 07:50:13;;;;;;;;;46.67;39.67;;;;;21.52;100.00;101207.00;4949119;28;46240;-86
2022/07/23 07:52:39;;;;;;;;;47.67;38.00;;;;;21.63;100.00;101219.38;4949330;28;44804;-84
2022/07/23 07:55:06;;;;;;;;;50.00;39.33;;;;;21.60;100.00;101208.66;4950544;28;45543;-81
2022/07/23 07:57:31;;;;;;;;;49.00;41.33;;;;;21.62;100.00;101207.66;4934507;28;45317;-82
2022/07/23 07:59:57;;;;;;;;;47.00;37.33;;;;;21.77;100.00;101218.13;4946873;28;46693;-82
2022/07/23 08:02:22;;;;;;;;;50.33;40.00;;;;;21.82;100.00;101223.44;4940907;28;45417;-83
2022/07/23 08:04:48;;;;;;;;;51.67;41.00;;;;;21.85;100.00;101214.31;4948781;28;45329;-81
2022/07/23 08:07:14;;;;;;;;;48.00;37.67;;;;;21.93;100.00;101223.16;4949148;28;45197;-84
2022/07/23 08:09:39;;;;;;;;;46.00;40.00;;;;;21.90;100.00;101223.25;4948540;28;46582;-83
2022/07/23 08:12:05;;;;;;;;;45.33;38.67;;;;;21.96;100.00;101223.09;4949594;28;45682;-85
2022/07/23 08:14:31;;;;;;;;;50.33;41.67;;;;;22.05;100.00;101217.41;4942365;28;45448;-82
2022/07/23 08:16:57;;;;;;;;;49.00;40.33;;;;;22.22;100.00;101216.06;4949262;28;44922;-85
2022/07/23 08:19:22;;;;;;;;;48.00;39.33;;;;;22.24;100.00;101216.94;4950393;28;46208;-82
2022/07/23 08:21:48;;;;;;;;;46.00;39.00;;;;;22.35;100.00;101231.13;4945484;28;45501;-83
2022/07/23 08:24:13;;;;;;;;;48.00;39.00;;;;;22.32;100.00;101232.09;4958057;28;44862;-87
2022/07/23 08:26:39;;;;;;;;;50.00;40.67;;;;;22.28;100.00;101238.53;4948193;28;45441;-83
2022/07/23 08:29:04;;;;;;;;;46.67;38.33;;;;;22.18;100.00;101235.13;4962762;28;47006;-81
2022/07/23 08:31:32;;;;;;;;;49.00;39.00;;;;;22.20;100.00;101226.06;4955232;28;45478;-84
2022/07/23 08:33:58;;;;;;;;;45.33;38.67;;;;;22.36;100.00;101241.94;4947596;28;45366;-82
2022/07/23 08:36:23;;;;;;;;;47.00;38.33;;;;;22.40;100.00;101245.44;4948070;28;44821;-82
2022/07/23 08:38:49;;;;;;;;;49.67;38.67;;;;;22.37;100.00;101245.50;4943339;28;46766;-82
2022/07/23 08:41:15;;;;;;;;;45.67;37.00;;;;;22.36;100.00;101244.63;4945767;28;45255;-84
2022/07/23 08:43:42;;;;;;;;;51.33;42.00;;;;;22.38;100.00;101258.16;4939528;28;45362;-83
2022/07/23 08:46:08;;;;;;;;;48.00;39.00;;;;;22.34;100.00;101256.44;4948272;28;45571;-83
2022/07/23 08:48:38;;;;;;;;;51.00;41.00;;;;;22.40;100.00;101264.41;4949015;28;46693;-83
2022/07/23 08:51:05;;;;;;;;;33.33;30.33;;;;;22.42;100.00;101254.44;4948693;28;45402;-83
2022/07/23 08:53:32;;;;;;;;;41.67;36.33;;;;;22.48;100.00;101265.09;4948007;28;45562;-82
2022/07/23 08:56:01;;;;;;;;;48.67;37.33;;;;;22.65;100.00;101266.47;4966075;28;44886;-83
2022/07/23 08:58:27;;;;;;;;;46.67;38.67;;;;;22.72;100.00;101259.91;4949525;28;47876;-82
2022/07/23 09:00:56;;;;;;;;;51.33;41.00;;;;;22.88;100.00;101272.09;4949229;28;45410;-82
2022/07/23 09:03:38;;;;;;;;;45.67;38.33;;;;;23.00;100.00;101268.16;4948074;28;45506;-84
2022/07/23 09:06:03;;;;;;;;;44.67;38.00;;;;;23.13;100.00;101252.44;4948704;28;45591;-83
2022/07/23 09:08:41;;;;;;;;;44.67;36.00;;;;;23.24;100.00;101261.13;4948808;28;47581;-85
2022/07/23 09:11:10;;;;;;;;;48.33;39.67;;;;;23.32;100.00;101260.91;4949365;28;45448;-82
2022/07/23 09:13:49;;;;;;;;;47.33;38.67;;;;;23.32;100.00;101266.34;4966670;28;45317;-82
2022/07/23 09:16:27;;;;;;;;;46.33;39.00;;;;;23.44;100.00;101257.81;4965916;28;45364;-83
2022/07/23 09:18:55;;;;;;;;;44.67;36.00;;;;;23.57;100.00;101258.31;4947929;28;48281;-82
2022/07/23 09:21:30;;;;;;;;;46.67;36.33;;;;;23.71;100.00;101261.50;4948186;28;45446;-82
2022/07/23 09:23:57;;;;;;;;;44.67;37.33;;;;;23.81;100.00;101255.78;4948318;28;45530;-82
2022/07/23 09:26:40;;;;;;;;;39.33;33.00;;;;;23.86;100.00;101259.25;4945237;28;45512;-82
2022/07/23 09:29:24;;;;;;;;;49.33;41.00;;;;;23.87;100.00;101261.00;4950065;28;45328;-83
2022/07/23 09:35:12;;;;;;;;;46.67;37.67;;;;;23.92;100.00;101259.03;4948413;28;45306;-83
2022/07/23 09:37:37;;;;;;;;;45.00;37.67;;;;;23.94;100.00;101252.59;4949440;28;45502;-82
2022/07/23 09:40:09;;;;;;;;;45.00;35.00;;;;;24.05;100.00;101254.06;4961848;28;47264;-84
2022/07/23 09:42:35;;;;;;;;;43.67;37.33;;;;;24.19;100.00;101256.31;4942474;28;45413;-83
2022/07/23 09:45:01;;;;;;;;;46.00;38.00;;;;;24.45;100.00;101253.56;4951727;28;45512;-84
2022/07/23 09:47:30;;;;;;;;;49.00;39.67;;;;;24.60;100.00;101256.72;4935420;28;45503;-83
2022/07/23 09:50:11;;;;;;;;;42.00;36.00;;;;;24.81;100.00;101253.22;4948714;28;47050;-82
2022/07/23 09:52:47;;;;;;;;;42.67;36.33;;;;;24.90;100.00;101255.59;4943730;28;45497;-84
2022/07/23 09:55:12;;;;;;;;;46.67;38.33;;;;;24.93;100.00;101257.31;4964794;28;45506;-82
2022/07/23 09:57:41;;;;;;;;;43.67;36.00;;;;;24.90;99.47;101255.59;4948281;28;45413;-82
2022/07/23 10:00:09;;;;;;;;;48.00;39.00;;;;;24.86;99.32;101253.91;4949553;28;45068;-81
2022/07/23 10:02:35;;;;;;;;;43.67;35.67;;;;;24.86;99.06;101253.03;4945324;28;45481;-83
2022/07/23 10:05:47;;;;;;;;;39.33;35.33;;;;;24.94;98.49;101253.63;4950739;28;45572;-83
2022/07/23 10:08:12;;;;;;;;;39.67;33.33;;;;;25.09;98.88;101244.03;4950845;28;45351;-82
2022/07/23 10:10:41;;;;;;;;;36.00;32.33;;;;;25.34;97.62;101244.84;4950461;28;45338;-83
2022/07/23 10:13:50;;;;;;;;;40.33;36.00;;;;;25.57;97.13;101255.78;4965535;28;45402;-84
2022/07/23 10:15:55;;;;;;;;;38.67;32.67;;;;;25.72;95.61;101256.03;4959007;28;44854;-83
2022/07/23 10:18:21;;;;;;;;;36.67;33.00;;;;;25.73;94.50;101257.84;4951232;28;45366;-84
2022/07/23 10:20:49;;;;;;;;;41.33;35.33;;;;;25.74;93.88;101248.69;4951557;28;47596;-83
2022/07/23 10:23:24;;;;;;;;;38.00;33.00;;;;;25.90;94.19;101248.09;4951875;28;45449;-83
2022/07/23 10:26:19;;;;;;;;;34.00;31.33;;;;;26.06;91.79;101249.22;4968791;28;45507;-84
2022/07/23 10:29:29;;;;;;;;;37.33;32.33;;;;;26.00;91.98;101237.72;4951420;28;45347;-83
2022/07/23 10:32:31;;;;;;;;;41.33;35.67;;;;;26.10;91.74;101244.53;4968857;28;45336;-82
2022/07/23 10:35:18;;;;;;;;;40.33;34.67;;;;;26.20;91.38;101251.38;4909838;29;45540;-83
2022/07/23 10:37:49;;;;;;;;;38.67;33.00;;;;;26.26;90.78;101244.78;4918305;28;45401;-82
2022/07/23 10:40:17;;;;;;;;;35.67;33.00;;;;;26.43;89.82;101257.66;4930530;28;45425;-83
2022/07/23 10:42:43;;;;;;;;;43.33;36.00;;;;;26.55;90.16;101260.72;4912713;28;47167;-83
2022/07/23 10:45:27;;;;;;;;;37.67;33.33;;;;;26.58;88.82;101262.44;4913057;28;44797;-83
2022/07/23 10:47:54;;;;;;;;;40.33;33.00;;;;;26.29;85.12;101258.25;4927674;28;44906;-84
2022/07/23 10:50:31;;;;;;;;;39.00;33.33;;;;;25.83;88.35;101274.66;4912852;28;45687;-84
2022/07/23 10:53:08;;;;;;;;;35.00;32.33;;;;;25.71;89.00;101280.63;4927856;28;46137;-82
2022/07/23 10:55:34;;;;;;;;;43.00;35.33;;;;;25.65;90.06;101280.88;4931389;28;44823;-83
2022/07/23 10:58:00;;;;;;;;;31.67;30.67;;;;;25.68;90.97;101281.63;4915449;28;45420;-83
2022/07/23 11:00:28;;;;;;;;;40.00;34.33;;;;;26.01;91.20;101273.06;4930410;28;45488;-83
2022/07/23 11:02:59;;;;;;;;;38.00;33.00;;;;;26.26;87.02;101277.50;4929336;28;45517;-83
2022/07/23 11:05:40;;;;;;;;;29.33;28.33;;;;;26.18;89.46;101290.53;4931526;28;45459;-83
2022/07/23 11:08:06;;;;;;;;;35.00;32.00;;;;;26.06;89.02;101289.25;4931104;28;45797;-83
2022/07/23 11:10:33;;;;;;;;;36.33;33.00;;;;;25.97;89.47;101292.34;4918055;28;45498;-83